createdAt,value
2022-12-23T00:02:33.984Z,28.92
2022-12-23T00:07:34.090Z,28.46
2022-12-23T00:12:33.259Z,27.97
2022-12-23T00:17:33.383Z,27.65
2022-12-23T00:22:32.541Z,27.19
2022-12-23T00:27:37.191Z,26.88
2022-12-23T00:32:29.969Z,26.43
2022-12-23T00:37:30.272Z,26.05
2022-12-23T00:42:27.577Z,25.64
2022-12-23T00:47:28.846Z,25.25
2022-12-23T00:52:28.193Z,24.93
2022-12-23T00:57:25.466Z,24.64
2022-12-23T01:02:25.926Z,24.35
2022-12-23T01:07:24.944Z,24.09
2022-12-23T01:12:24.234Z,23.83
2022-12-23T01:17:23.749Z,23.58
2022-12-23T01:22:24.754Z,23.38
2022-12-23T01:27:23.026Z,23.16
2022-12-23T01:32:21.338Z,22.98
2022-12-23T01:37:20.659Z,22.79
2022-12-23T01:42:21.978Z,22.64
2022-12-23T01:47:19.269Z,22.49
2022-12-23T01:52:18.580Z,22.33
2022-12-23T01:57:18.847Z,22.20
2022-12-23T02:02:17.293Z,22.07
2022-12-23T02:07:17.264Z,21.98
2022-12-23T02:12:16.556Z,21.86
2022-12-23T02:17:14.983Z,21.74
2022-12-23T02:22:15.103Z,21.65
2022-12-23T02:27:13.392Z,21.56
2022-12-23T02:32:12.720Z,21.46
2022-12-23T02:37:11.989Z,21.38
2022-12-23T02:42:10.257Z,21.32
2022-12-23T02:47:11.564Z,21.25
2022-12-23T02:52:10.845Z,21.19
2022-12-23T02:57:09.128Z,21.13
2022-12-23T03:02:08.592Z,21.09
2022-12-23T03:07:11.427Z,20.99
2022-12-23T03:12:06.716Z,20.95
2022-12-23T03:17:07.008Z,20.91
2022-12-23T03:22:08.299Z,20.85
2022-12-23T03:27:04.612Z,20.79
2022-12-23T03:32:03.910Z,20.77
2022-12-23T03:37:03.212Z,20.73
2022-12-23T03:42:03.496Z,20.70
2022-12-23T03:47:01.834Z,20.62
2022-12-23T03:52:03.971Z,20.61
2022-12-23T03:57:02.260Z,20.55
2022-12-23T04:01:59.615Z,20.51
2022-12-23T04:06:58.743Z,20.43
2022-12-23T04:11:58.059Z,20.41
2022-12-23T04:16:57.370Z,20.38
2022-12-23T04:21:56.694Z,20.33
2022-12-23T04:26:57.033Z,20.29
2022-12-23T04:31:55.270Z,20.24
2022-12-23T04:36:55.433Z,20.21
2022-12-23T04:41:54.751Z,20.18
2022-12-23T04:46:53.131Z,20.16
2022-12-23T04:51:52.300Z,20.14
2022-12-23T04:56:51.641Z,20.08
2022-12-23T05:01:51.074Z,20.06
2022-12-23T05:06:52.096Z,20.02
2022-12-23T05:11:49.375Z,19.98
2022-12-23T05:16:48.737Z,19.96
2022-12-23T05:21:49.829Z,19.94
2022-12-23T05:26:48.070Z,19.88
2022-12-23T05:31:48.525Z,19.87
2022-12-23T05:36:45.746Z,19.84
2022-12-23T05:41:46.830Z,19.81
2022-12-23T05:46:44.279Z,19.84
2022-12-23T05:51:43.456Z,22.82
2022-12-23T05:56:43.797Z,24.81
2022-12-23T06:01:42.012Z,26.26
2022-12-23T06:06:41.212Z,26.99
2022-12-23T06:11:40.336Z,26.58
2022-12-23T06:16:39.539Z,26.99
2022-12-23T06:21:38.748Z,27.51
2022-12-23T06:26:37.888Z,27.79
2022-12-23T06:31:37.250Z,28.19
2022-12-23T06:36:36.305Z,28.37
2022-12-23T06:41:36.657Z,28.81
2022-12-23T06:46:37.804Z,29.12
2022-12-23T06:51:36.132Z,29.28
2022-12-23T06:56:34.431Z,29.18
2022-12-23T07:01:33.863Z,28.93
2022-12-23T07:06:32.057Z,28.90
2022-12-23T07:11:32.382Z,29.15
2022-12-23T07:16:32.756Z,29.43
2022-12-23T07:21:30.912Z,29.67
2022-12-23T07:26:30.200Z,29.82
2022-12-23T07:31:28.698Z,29.80
2022-12-23T07:36:28.846Z,29.89
2022-12-23T07:41:27.141Z,29.42
2022-12-23T07:46:26.539Z,29.41
2022-12-23T07:51:22.359Z,29.51
2022-12-23T07:56:24.924Z,29.57
2022-12-23T08:01:24.116Z,29.63
2022-12-23T08:06:23.237Z,29.82
2022-12-23T08:11:22.638Z,29.86
2022-12-23T08:16:22.787Z,30.05
2022-12-23T08:21:22.122Z,29.78
2022-12-23T08:26:21.244Z,30.04
2022-12-23T08:31:20.648Z,29.82
2022-12-23T08:36:23.003Z,29.74
2022-12-23T08:41:18.093Z,29.55
2022-12-23T08:46:17.446Z,29.45
2022-12-23T08:51:17.562Z,29.12
2022-12-23T08:56:15.681Z,28.67
2022-12-23T09:01:14.983Z,28.22
2022-12-23T09:06:15.287Z,27.79
2022-12-23T09:11:14.653Z,27.27
2022-12-23T09:16:13.780Z,26.84
2022-12-23T09:21:11.918Z,26.47
2022-12-23T09:26:12.212Z,26.05
2022-12-23T09:31:12.599Z,25.64
2022-12-23T09:36:09.747Z,25.45
2022-12-23T09:41:09.087Z,26.18
2022-12-23T09:46:08.439Z,27.49
2022-12-23T09:51:07.556Z,28.14
2022-12-23T09:56:06.860Z,28.56
2022-12-23T10:01:07.155Z,28.83
2022-12-23T10:06:05.508Z,28.61
2022-12-23T10:11:04.641Z,28.24
2022-12-23T10:16:04.012Z,27.88
2022-12-23T10:21:03.133Z,27.47
2022-12-23T10:26:03.429Z,27.19
2022-12-23T10:36:01.127Z,26.55
2022-12-23T10:41:05.342Z,26.21
2022-12-23T10:45:59.623Z,26.02
2022-12-23T10:50:58.941Z,26.13
2022-12-23T10:55:58.268Z,26.48
2022-12-23T11:00:58.597Z,27.24
2022-12-23T11:05:56.696Z,27.67
2022-12-23T11:10:56.053Z,27.96
2022-12-23T11:15:57.237Z,28.21
2022-12-23T11:20:54.306Z,28.34
2022-12-23T11:25:54.605Z,28.17
2022-12-23T11:30:56.239Z,27.72
2022-12-23T11:35:53.222Z,27.40
2022-12-23T11:40:52.531Z,26.99
2022-12-23T11:45:50.850Z,26.62
2022-12-23T11:50:49.957Z,26.29
2022-12-23T11:55:48.249Z,25.99
2022-12-23T12:00:55.138Z,25.82
2022-12-23T12:05:47.725Z,26.28
2022-12-23T12:10:46.862Z,26.82
2022-12-23T12:15:46.158Z,27.21
2022-12-23T12:20:45.445Z,27.69
2022-12-23T12:25:44.751Z,28.04
2022-12-23T12:30:45.128Z,28.30
2022-12-23T12:35:43.233Z,28.43
2022-12-23T12:40:42.541Z,28.11
2022-12-23T12:45:41.892Z,27.74
2022-12-23T12:50:44.207Z,27.40
2022-12-23T12:55:41.296Z,27.02
2022-12-23T13:00:39.567Z,26.69
2022-12-23T13:05:38.918Z,26.33
2022-12-23T13:10:38.045Z,26.06
2022-12-23T13:15:39.347Z,26.10
2022-12-23T13:20:36.637Z,26.55
2022-12-23T13:25:34.969Z,27.06
2022-12-23T13:30:35.356Z,27.62
2022-12-23T13:35:33.453Z,27.93
2022-12-23T13:40:32.769Z,28.11
2022-12-23T13:45:33.085Z,28.19
2022-12-23T13:50:32.386Z,28.07
2022-12-23T13:55:32.717Z,27.74
2022-12-23T14:00:32.011Z,27.28
2022-12-23T14:05:30.371Z,26.99
2022-12-23T14:10:29.477Z,26.77
2022-12-23T14:15:28.861Z,26.37
2022-12-23T14:20:27.960Z,26.05
2022-12-23T14:25:28.286Z,25.79
2022-12-23T14:30:26.607Z,26.05
2022-12-23T14:35:26.929Z,26.72
2022-12-23T14:40:25.295Z,27.10
2022-12-23T14:45:24.446Z,27.51
2022-12-23T14:50:25.779Z,27.78
2022-12-23T14:55:31.278Z,28.02
2022-12-23T15:00:23.314Z,28.11
2022-12-23T15:05:23.818Z,27.85
2022-12-23T15:10:22.710Z,27.36
2022-12-23T15:15:22.040Z,27.18
2022-12-23T15:20:19.342Z,26.76
2022-12-23T15:25:18.671Z,26.44
2022-12-23T15:30:17.964Z,26.20
2022-12-23T15:35:17.260Z,25.83
2022-12-23T15:40:17.608Z,25.65
2022-12-23T15:45:16.721Z,26.25
2022-12-23T15:50:16.075Z,26.87
2022-12-23T15:55:14.207Z,27.59
2022-12-23T16:00:13.547Z,28.00
2022-12-23T16:05:12.687Z,28.22
2022-12-23T16:10:11.850Z,28.27
2022-12-23T16:15:10.952Z,27.99
2022-12-23T16:20:12.277Z,27.66
2022-12-23T16:25:09.597Z,27.31
2022-12-23T16:30:09.952Z,26.92
2022-12-23T16:35:10.126Z,26.66
2022-12-23T16:40:07.234Z,26.21
2022-12-23T16:45:07.536Z,25.94
2022-12-23T16:50:06.853Z,25.62
2022-12-23T16:55:09.478Z,26.82
2022-12-23T17:00:04.355Z,27.66
2022-12-23T17:05:04.667Z,28.44
2022-12-23T17:10:02.988Z,28.71
2022-12-23T17:15:03.327Z,29.09
2022-12-23T17:20:02.653Z,29.43
2022-12-23T17:25:01.958Z,29.73
2022-12-23T17:30:02.125Z,30.11
2022-12-23T17:34:59.464Z,30.29
2022-12-23T17:40:00.607Z,30.53
2022-12-23T17:44:58.747Z,29.15
2022-12-23T17:49:57.079Z,29.27
2022-12-23T17:54:57.402Z,29.51
2022-12-23T17:59:55.706Z,30.00
2022-12-23T18:04:56.022Z,29.83
2022-12-23T18:09:55.322Z,30.08
2022-12-23T18:14:53.642Z,30.31
2022-12-23T18:19:52.997Z,30.53
2022-12-23T18:24:58.910Z,30.10
2022-12-23T18:29:51.279Z,30.00
2022-12-23T18:34:50.565Z,30.23
2022-12-23T18:39:49.878Z,30.34
2022-12-23T18:44:49.214Z,30.27
2022-12-23T18:49:49.573Z,30.38
2022-12-23T18:54:46.790Z,30.49
2022-12-23T18:59:46.932Z,30.61
2022-12-23T19:04:46.046Z,30.77
2022-12-23T19:09:46.392Z,30.94
2022-12-23T19:14:44.740Z,30.61
2022-12-23T19:19:44.840Z,30.15
2022-12-23T19:25:04.072Z,30.29
2022-12-23T19:29:42.433Z,30.55
2022-12-23T19:34:42.554Z,30.82
2022-12-23T19:39:41.921Z,30.86
2022-12-23T19:44:40.012Z,30.95
2022-12-23T19:49:39.375Z,30.97
2022-12-23T19:54:38.609Z,31.09
2022-12-23T19:59:38.810Z,31.32
2022-12-23T20:04:36.924Z,30.95
2022-12-23T20:09:36.090Z,30.53
2022-12-23T20:14:35.391Z,30.46
2022-12-23T20:19:39.082Z,30.43
2022-12-23T20:24:34.875Z,30.73
2022-12-23T20:29:34.276Z,30.55
2022-12-23T20:34:38.574Z,30.05
2022-12-23T20:39:31.750Z,30.35
2022-12-23T20:44:36.147Z,30.76
2022-12-23T20:49:30.103Z,30.86
2022-12-23T20:54:33.259Z,30.60
2022-12-23T20:59:28.579Z,30.29
2022-12-23T21:04:27.764Z,30.43
2022-12-23T21:09:26.956Z,30.35
2022-12-23T21:14:28.143Z,31.04
2022-12-23T21:19:24.347Z,31.28
2022-12-23T21:24:24.508Z,30.98
2022-12-23T21:29:23.682Z,30.72
2022-12-23T21:34:22.868Z,30.77
2022-12-23T21:39:22.029Z,31.01
2022-12-23T21:44:22.224Z,30.88
2022-12-23T21:49:21.380Z,30.91
2022-12-23T21:54:19.540Z,30.84
2022-12-23T21:59:19.721Z,30.83
2022-12-23T22:04:17.899Z,25.24
2022-12-23T22:09:17.232Z,24.85
2022-12-23T22:14:17.306Z,25.00
2022-12-23T22:19:14.476Z,25.13
2022-12-23T22:24:15.656Z,25.40
2022-12-23T22:29:12.812Z,25.94
2022-12-23T22:34:13.002Z,24.21
2022-12-23T22:39:19.524Z,24.58
2022-12-23T22:44:12.394Z,25.87
2022-12-23T22:49:11.563Z,24.52
2022-12-23T22:54:09.755Z,28.02
2022-12-23T22:59:08.924Z,29.24
2022-12-23T23:04:08.108Z,29.24
2022-12-23T23:09:07.307Z,29.04
2022-12-23T23:14:06.558Z,28.77
2022-12-23T23:19:05.710Z,28.51
2022-12-23T23:24:06.889Z,28.24
2022-12-23T23:29:05.051Z,27.94
2022-12-23T23:34:03.344Z,27.62
2022-12-23T23:39:02.462Z,27.12
2022-12-23T23:44:01.802Z,26.73
2022-12-23T23:49:00.917Z,26.21
2022-12-23T23:54:00.232Z,25.92
2022-12-23T23:59:00.493Z,25.80
